createdAt,value
2018-11-13T00:00:03.615Z,69.128418
2018-11-13T00:00:23.312Z,69.128418
2018-11-13T00:00:43.031Z,69.128418
2018-11-13T00:01:02.774Z,69.226074
2018-11-13T00:01:22.467Z,69.226074
2018-11-13T00:01:42.228Z,69.433594
2018-11-13T00:02:02.258Z,69.63501
2018-11-13T00:02:22.017Z,69.63501
2018-11-13T00:02:41.603Z,69.53125
2018-11-13T00:03:01.332Z,69.567871
2018-11-13T00:03:21.409Z,69.73877
2018-11-13T00:03:41.400Z,69.836426
2018-11-13T00:04:02.128Z,69.836426
2018-11-13T00:04:21.904Z,69.940186
2018-11-13T00:04:41.432Z,69.940186
2018-11-13T00:05:01.060Z,69.836426
2018-11-13T00:05:21.736Z,69.836426
2018-11-13T00:05:41.264Z,69.836426
2018-11-13T00:06:00.837Z,69.940186
2018-11-13T00:06:20.445Z,69.63501
2018-11-13T00:06:40.114Z,69.63501
2018-11-13T00:06:59.683Z,69.63501
2018-11-13T00:07:19.269Z,69.63501
2018-11-13T00:07:38.885Z,69.63501
2018-11-13T00:07:58.488Z,69.873047
2018-11-13T00:08:18.105Z,70.074463
2018-11-13T00:08:37.659Z,70.513916
2018-11-13T00:08:57.313Z,70.819092
2018-11-13T00:09:23.389Z,70.922852
2018-11-13T00:09:43.624Z,71.020508
2018-11-13T00:10:03.163Z,70.88623
2018-11-13T00:10:22.689Z,70.684814
2018-11-13T00:10:42.504Z,70.788574
2018-11-13T00:11:02.047Z,70.581055
2018-11-13T00:11:21.689Z,70.483398
2018-11-13T00:11:41.214Z,70.483398
2018-11-13T00:12:00.727Z,70.581055
2018-11-13T00:12:21.353Z,70.581055
2018-11-13T00:12:40.883Z,70.684814
2018-11-13T00:13:00.628Z,70.483398
2018-11-13T00:13:20.315Z,70.483398
2018-11-13T00:13:39.944Z,70.379639
2018-11-13T00:13:59.460Z,70.275879
2018-11-13T00:14:19.131Z,70.074463
2018-11-13T00:14:39.683Z,70.074463
2018-11-13T00:14:59.328Z,70.074463
2018-11-13T00:15:18.992Z,69.970703
2018-11-13T00:15:38.455Z,70.10498
2018-11-13T00:15:58.104Z,70.379639
2018-11-13T00:16:17.634Z,70.483398
2018-11-13T00:16:37.177Z,70.410156
2018-11-13T00:16:56.708Z,70.20874
2018-11-13T00:17:16.269Z,70.20874
2018-11-13T00:17:36.850Z,70.410156
2018-11-13T00:17:57.427Z,70.513916
2018-11-13T00:18:16.997Z,70.410156
2018-11-13T00:18:36.501Z,70.550537
2018-11-13T00:18:56.114Z,70.751953
2018-11-13T00:19:15.603Z,70.855713
2018-11-13T00:19:36.284Z,71.057129
2018-11-13T00:19:55.813Z,70.953369
2018-11-13T00:20:15.416Z,70.953369
2018-11-13T00:20:35.126Z,70.855713
2018-11-13T00:20:54.657Z,70.751953
2018-11-13T00:21:14.867Z,70.648193
2018-11-13T00:21:34.519Z,70.648193
2018-11-13T00:21:54.090Z,70.446777
2018-11-13T00:22:13.615Z,70.446777
2018-11-13T00:22:33.297Z,70.550537
2018-11-13T00:22:52.866Z,70.648193
2018-11-13T00:23:12.442Z,70.855713
2018-11-13T00:23:32.131Z,70.953369
2018-11-13T00:23:51.699Z,70.855713
2018-11-13T00:24:11.348Z,70.751953
2018-11-13T00:24:30.887Z,70.617676
2018-11-13T00:24:50.421Z,70.617676
2018-11-13T00:25:10.105Z,70.715332
2018-11-13T00:25:29.723Z,70.819092
2018-11-13T00:25:49.354Z,70.513916
2018-11-13T00:26:08.990Z,70.3125
2018-11-13T00:26:28.523Z,69.799805
2018-11-13T00:26:48.063Z,70.141602
2018-11-13T00:27:12.360Z,70.550537
2018-11-13T00:27:31.882Z,70.88623
2018-11-13T00:27:52.430Z,71.087646
2018-11-13T00:28:12.101Z,71.392822
2018-11-13T00:28:32.924Z,71.704102
2018-11-13T00:28:52.223Z,71.801758
2018-11-13T00:29:11.800Z,71.801758
2018-11-13T00:29:32.765Z,72.039795
2018-11-13T00:29:52.374Z,72.039795
2018-11-13T00:30:25.945Z,71.936035
2018-11-13T00:31:16.758Z,72.039795
2018-11-13T00:31:58.930Z,72.241211
2018-11-13T00:32:26.811Z,72.241211
2018-11-13T00:33:15.990Z,72.009277
2018-11-13T00:34:18.280Z,71.496582
2018-11-13T00:35:11.978Z,71.936035
2018-11-13T00:36:09.220Z,72.039795
2018-11-13T00:37:06.230Z,72.009277
2018-11-13T00:37:57.019Z,72.106934
2018-11-13T00:38:51.076Z,72.106934
2018-11-13T00:39:54.115Z,71.66748
2018-11-13T00:40:53.074Z,71.258545
2018-11-13T00:41:40.320Z,71.258545
2018-11-13T00:42:27.016Z,71.124268
2018-11-13T00:43:08.227Z,70.922852
2018-11-13T00:43:47.212Z,70.922852
2018-11-13T00:44:16.995Z,71.020508
2018-11-13T00:44:36.557Z,70.819092
2018-11-13T00:44:56.081Z,70.819092
2018-11-13T00:45:15.714Z,70.715332
2018-11-13T00:45:35.382Z,70.617676
2018-11-13T00:45:55.429Z,70.513916
2018-11-13T00:46:15.284Z,70.513916
2018-11-13T00:46:34.872Z,70.410156
2018-11-13T00:46:54.448Z,70.513916
2018-11-13T00:47:13.996Z,70.513916
2018-11-13T00:47:33.564Z,70.513916
2018-11-13T00:47:53.226Z,70.617676
2018-11-13T00:48:12.817Z,70.513916
2018-11-13T00:48:32.428Z,70.648193
2018-11-13T00:48:52.009Z,70.617676
2018-11-13T00:49:11.578Z,70.3125
2018-11-13T00:49:31.249Z,70.3125
2018-11-13T00:49:50.797Z,70.3125
2018-11-13T00:50:10.352Z,70.410156
2018-11-13T00:50:29.998Z,70.3125
2018-11-13T00:50:49.503Z,70.10498
2018-11-13T00:51:09.555Z,70.007324
2018-11-13T00:51:29.073Z,70.007324
2018-11-13T00:51:48.870Z,70.007324
2018-11-13T00:52:08.585Z,69.903564
2018-11-13T00:52:28.140Z,69.799805
2018-11-13T00:52:47.738Z,69.702148
2018-11-13T00:53:07.283Z,69.598389
2018-11-13T00:53:26.828Z,69.836426
2018-11-13T00:53:46.338Z,69.732666
2018-11-13T00:54:05.862Z,69.934082
2018-11-13T00:54:26.260Z,70.239258
2018-11-13T00:54:45.890Z,70.239258
2018-11-13T00:55:05.583Z,70.239258
2018-11-13T00:55:24.882Z,70.343018
2018-11-13T00:55:44.406Z,70.648193
2018-11-13T00:56:03.946Z,70.343018
2018-11-13T00:56:25.659Z,70.379639
2018-11-13T00:56:49.818Z,70.379639
2018-11-13T00:57:10.374Z,70.172119
2018-11-13T00:57:29.889Z,70.275879
2018-11-13T00:57:49.470Z,70.275879
2018-11-13T00:58:09.180Z,70.379639
2018-11-13T00:58:28.701Z,70.275879
2018-11-13T00:58:48.244Z,70.275879
2018-11-13T00:59:07.868Z,70.477295
2018-11-13T00:59:27.513Z,70.684814
2018-11-13T00:59:47.037Z,70.477295
2018-11-13T01:00:06.651Z,70.477295
2018-11-13T01:00:26.182Z,70.581055
2018-11-13T01:00:45.815Z,70.581055
2018-11-13T01:01:05.300Z,70.782471
2018-11-13T01:01:24.861Z,70.684814
2018-11-13T01:01:44.386Z,70.684814
2018-11-13T01:02:03.956Z,70.684814
2018-11-13T01:02:23.479Z,70.715332
2018-11-13T01:02:42.990Z,70.782471
2018-11-13T01:03:02.617Z,70.98999
2018-11-13T01:03:22.201Z,70.98999
2018-11-13T01:03:41.805Z,70.88623
2018-11-13T01:04:01.398Z,70.88623
2018-11-13T01:04:20.966Z,70.782471
2018-11-13T01:04:40.664Z,70.581055
2018-11-13T01:05:00.258Z,70.275879
2018-11-13T01:05:19.893Z,70.172119
2018-11-13T01:05:39.364Z,70.477295
2018-11-13T01:05:58.877Z,70.477295
2018-11-13T01:06:18.445Z,70.477295
2018-11-13T01:06:37.963Z,70.275879
2018-11-13T01:06:57.510Z,70.037842
2018-11-13T01:07:17.157Z,69.836426
2018-11-13T01:07:36.762Z,69.732666
2018-11-13T01:07:56.289Z,69.628906
2018-11-13T01:08:16.020Z,69.628906
2018-11-13T01:08:36.064Z,69.665527
2018-11-13T01:08:55.700Z,69.763184
2018-11-13T01:09:15.292Z,70.074463
2018-11-13T01:09:34.815Z,70.275879
2018-11-13T01:09:54.376Z,70.379639
2018-11-13T01:10:13.992Z,70.477295
2018-11-13T01:10:33.562Z,70.581055
2018-11-13T01:10:53.128Z,70.782471
2018-11-13T01:11:12.705Z,70.477295
2018-11-13T01:11:32.271Z,70.275879
2018-11-13T01:11:51.871Z,70.141602
2018-11-13T01:12:11.457Z,70.141602
2018-11-13T01:12:31.118Z,69.934082
2018-11-13T01:12:53.090Z,69.836426
2018-11-13T01:13:13.472Z,69.628906
2018-11-13T01:13:33.042Z,69.763184
2018-11-13T01:13:52.565Z,69.970703
2018-11-13T01:14:12.123Z,70.172119
2018-11-13T01:14:31.696Z,70.275879
2018-11-13T01:14:51.320Z,70.275879
2018-11-13T01:15:11.209Z,70.275879
2018-11-13T01:15:31.349Z,70.379639
2018-11-13T01:15:50.910Z,70.275879
2018-11-13T01:16:10.476Z,70.379639
2018-11-13T01:16:30.021Z,70.581055
2018-11-13T01:16:49.530Z,70.715332
2018-11-13T01:17:09.098Z,70.819092
2018-11-13T01:17:28.666Z,70.819092
2018-11-13T01:17:48.191Z,70.819092
2018-11-13T01:18:07.776Z,70.916748
2018-11-13T01:18:27.293Z,70.916748
2018-11-13T01:18:46.814Z,70.916748
2018-11-13T01:19:06.343Z,70.88623
2018-11-13T01:19:25.872Z,70.88623
2018-11-13T01:19:45.413Z,70.782471
2018-11-13T01:20:04.973Z,70.410156
2018-11-13T01:20:24.496Z,70.611572
2018-11-13T01:20:44.642Z,70.715332
2018-11-13T01:21:10.564Z,70.715332
2018-11-13T01:21:30.433Z,70.819092
2018-11-13T01:21:49.932Z,71.020508
2018-11-13T01:22:09.471Z,70.715332
2018-11-13T01:22:29.040Z,70.581055
2018-11-13T01:22:48.575Z,70.581055
2018-11-13T01:23:09.102Z,70.306396
2018-11-13T01:23:28.666Z,70.513916
2018-11-13T01:23:48.199Z,70.611572
2018-11-13T01:24:07.728Z,70.611572
2018-11-13T01:24:27.248Z,70.410156
2018-11-13T01:24:46.771Z,70.410156
2018-11-13T01:25:07.398Z,70.513916
2018-11-13T01:25:26.933Z,70.611572
2018-11-13T01:25:46.487Z,70.611572
2018-11-13T01:26:06.042Z,70.611572
2018-11-13T01:26:25.599Z,70.648193
2018-11-13T01:26:45.141Z,70.74585
2018-11-13T01:27:04.663Z,71.057129
2018-11-13T01:27:24.185Z,70.953369
2018-11-13T01:27:43.735Z,71.020508
2018-11-13T01:28:03.270Z,71.020508
2018-11-13T01:28:22.836Z,70.916748
2018-11-13T01:28:42.393Z,70.715332
2018-11-13T01:29:01.944Z,70.513916
2018-11-13T01:29:21.458Z,70.410156
2018-11-13T01:29:41.050Z,70.275879
2018-11-13T01:30:00.670Z,70.172119
2018-11-13T01:30:20.176Z,70.074463
2018-11-13T01:30:39.721Z,70.074463
2018-11-13T01:30:59.252Z,69.866943
2018-11-13T01:31:18.757Z,69.970703
2018-11-13T01:31:38.294Z,69.866943
2018-11-13T01:31:57.847Z,69.866943
2018-11-13T01:32:17.333Z,69.970703
2018-11-13T01:32:36.897Z,69.970703
2018-11-13T01:32:56.435Z,70.074463
2018-11-13T01:33:15.968Z,70.074463
2018-11-13T01:33:35.487Z,70.074463
2018-11-13T01:33:55.000Z,70.074463
2018-11-13T01:34:14.541Z,70.172119
2018-11-13T01:34:34.119Z,70.074463
2018-11-13T01:34:53.653Z,69.970703
2018-11-13T01:35:13.276Z,69.763184
2018-11-13T01:35:32.818Z,69.763184
2018-11-13T01:35:52.373Z,69.732666
2018-11-13T01:36:11.893Z,69.732666
2018-11-13T01:36:31.399Z,69.732666
2018-11-13T01:36:50.920Z,69.732666
2018-11-13T01:37:10.488Z,69.628906
2018-11-13T01:37:29.994Z,69.628906
2018-11-13T01:37:49.576Z,69.628906
2018-11-13T01:38:09.148Z,69.53125
2018-11-13T01:38:28.660Z,69.42749
2018-11-13T01:38:48.234Z,69.42749
2018-11-13T01:39:07.790Z,69.53125
2018-11-13T01:39:27.311Z,69.42749
2018-11-13T01:39:46.836Z,69.42749
2018-11-13T01:40:06.499Z,69.42749
2018-11-13T01:40:26.050Z,69.42749
2018-11-13T01:40:45.586Z,69.32373
2018-11-13T01:41:05.112Z,69.32373
2018-11-13T01:41:24.655Z,69.32373
2018-11-13T01:41:44.215Z,69.42749
2018-11-13T01:42:03.694Z,69.32373
2018-11-13T01:42:23.268Z,69.628906
2018-11-13T01:42:42.825Z,69.934082
2018-11-13T01:43:02.376Z,69.836426
2018-11-13T01:43:21.919Z,69.732666
2018-11-13T01:43:41.492Z,69.836426
2018-11-13T01:44:01.042Z,69.836426
2018-11-13T01:44:20.585Z,69.732666
2018-11-13T01:44:40.127Z,69.53125
2018-11-13T01:44:59.659Z,69.32373
2018-11-13T01:45:19.270Z,69.42749
2018-11-13T01:45:38.825Z,69.42749
2018-11-13T01:45:58.332Z,69.42749
2018-11-13T01:46:17.879Z,69.53125
2018-11-13T01:46:37.419Z,69.42749
2018-11-13T01:46:56.924Z,69.42749
2018-11-13T01:47:16.461Z,69.32373
2018-11-13T01:47:36.016Z,69.122314
2018-11-13T01:47:55.595Z,69.122314
2018-11-13T01:48:15.725Z,69.018555
2018-11-13T01:48:35.234Z,68.920898
2018-11-13T01:48:55.239Z,68.920898
2018-11-13T01:49:14.321Z,68.817139
2018-11-13T01:49:33.927Z,68.817139
2018-11-13T01:49:53.358Z,68.920898
2018-11-13T01:50:12.977Z,68.713379
2018-11-13T01:50:32.529Z,68.615723
2018-11-13T01:50:52.068Z,68.817139
2018-11-13T01:51:11.581Z,68.713379
2018-11-13T01:51:31.098Z,68.713379
2018-11-13T01:51:50.641Z,68.713379
2018-11-13T01:52:10.148Z,68.713379
2018-11-13T01:52:29.702Z,68.615723
2018-11-13T01:52:49.222Z,68.713379
2018-11-13T01:53:08.730Z,68.713379
2018-11-13T01:53:28.265Z,68.615723
2018-11-13T01:53:47.812Z,68.615723
2018-11-13T01:54:07.368Z,68.615723
2018-11-13T01:54:26.996Z,68.615723
2018-11-13T01:54:46.429Z,68.615723
2018-11-13T01:55:05.947Z,68.817139
2018-11-13T01:55:26.497Z,68.713379
2018-11-13T01:55:46.058Z,68.511963
2018-11-13T01:56:05.596Z,68.408203
2018-11-13T01:56:26.093Z,68.713379
2018-11-13T01:56:45.601Z,68.615723
2018-11-13T01:57:06.159Z,68.713379
2018-11-13T01:57:25.676Z,68.615723
2018-11-13T01:57:45.232Z,68.615723
2018-11-13T01:58:04.748Z,68.713379
2018-11-13T01:58:24.282Z,68.615723
2018-11-13T01:58:43.806Z,68.408203
2018-11-13T01:59:03.343Z,68.310547
2018-11-13T01:59:22.892Z,68.103027
2018-11-13T01:59:42.450Z,68.103027
2018-11-13T02:00:01.976Z,68.005371
2018-11-13T02:00:21.576Z,68.005371
2018-11-13T02:00:41.106Z,68.005371
2018-11-13T02:01:00.672Z,68.005371
2018-11-13T02:01:20.230Z,68.005371
2018-11-13T02:01:39.730Z,68.103027
2018-11-13T02:01:59.307Z,68.005371
2018-11-13T02:02:18.843Z,68.103027
2018-11-13T02:02:38.412Z,68.005371
2018-11-13T02:02:57.971Z,68.103027
2018-11-13T02:03:17.522Z,68.206787
2018-11-13T02:03:37.055Z,68.103027
2018-11-13T02:03:56.579Z,67.797852
2018-11-13T02:04:16.088Z,67.797852
2018-11-13T02:04:35.678Z,67.694092
2018-11-13T02:04:55.206Z,67.596436
2018-11-13T02:05:14.757Z,67.492676
2018-11-13T02:05:34.339Z,67.694092
2018-11-13T02:05:53.956Z,67.492676
2018-11-13T02:06:13.462Z,67.694092
2018-11-13T02:06:32.999Z,67.492676
2018-11-13T02:06:52.499Z,67.596436
2018-11-13T02:07:12.050Z,67.492676
2018-11-13T02:07:31.634Z,67.388916
2018-11-13T02:07:52.077Z,67.388916
2018-11-13T02:08:11.620Z,67.358398
2018-11-13T02:08:31.172Z,67.260742
2018-11-13T02:08:50.679Z,67.260742
2018-11-13T02:09:10.234Z,67.358398
2018-11-13T02:09:29.804Z,67.492676
2018-11-13T02:09:49.332Z,67.358398
2018-11-13T02:10:08.881Z,67.358398
2018-11-13T02:10:28.537Z,67.358398
2018-11-13T02:10:48.073Z,67.358398
2018-11-13T02:11:07.619Z,67.358398
2018-11-13T02:11:27.167Z,67.565918
2018-11-13T02:11:46.724Z,67.462158
2018-11-13T02:12:07.270Z,67.462158
2018-11-13T02:12:26.843Z,67.565918
2018-11-13T02:12:46.430Z,67.565918
2018-11-13T02:13:05.976Z,67.565918
2018-11-13T02:13:25.591Z,67.358398
2018-11-13T02:13:45.158Z,67.462158
2018-11-13T02:14:04.676Z,67.462158
2018-11-13T02:14:24.192Z,67.767334
2018-11-13T02:14:43.742Z,67.767334
2018-11-13T02:15:03.243Z,67.96875
2018-11-13T02:15:22.788Z,68.579102
2018-11-13T02:15:42.388Z,68.884277
2018-11-13T02:16:01.907Z,69.189453
2018-11-13T02:16:21.432Z,69.598389
2018-11-13T02:16:40.984Z,70.007324
2018-11-13T02:17:00.549Z,70.410156
2018-11-13T02:17:20.074Z,70.513916
2018-11-13T02:17:39.621Z,70.715332
2018-11-13T02:17:59.160Z,70.922852
2018-11-13T02:18:18.705Z,71.160889
2018-11-13T02:18:38.277Z,71.124268
2018-11-13T02:18:57.806Z,71.362305
2018-11-13T02:19:17.354Z,71.325684
2018-11-13T02:19:36.950Z,71.563721
2018-11-13T02:19:56.499Z,71.66748
2018-11-13T02:20:16.018Z,71.77124
2018-11-13T02:20:35.611Z,71.868896
2018-11-13T02:20:55.183Z,71.972656
2018-11-13T02:21:14.706Z,72.076416
2018-11-13T02:21:34.216Z,72.174072
2018-11-13T02:21:53.849Z,72.277832
2018-11-13T02:22:13.395Z,72.277832
2018-11-13T02:22:32.948Z,72.381592
2018-11-13T02:22:52.461Z,72.381592
2018-11-13T02:23:11.990Z,72.381592
2018-11-13T02:23:31.520Z,72.583008
2018-11-13T02:23:51.035Z,72.784424
2018-11-13T02:24:10.570Z,72.686768
2018-11-13T02:24:30.114Z,72.686768
2018-11-13T02:24:49.629Z,72.686768
2018-11-13T02:25:09.163Z,72.583008
2018-11-13T02:25:28.710Z,72.583008
2018-11-13T02:25:48.278Z,72.686768
2018-11-13T02:26:07.810Z,72.686768
2018-11-13T02:26:27.345Z,72.686768
2018-11-13T02:26:46.920Z,72.784424
2018-11-13T02:27:06.453Z,72.888184
2018-11-13T02:27:25.970Z,72.784424
2018-11-13T02:27:45.486Z,72.888184
2018-11-13T02:28:05.008Z,72.991943
2018-11-13T02:28:24.545Z,72.888184
2018-11-13T02:28:44.127Z,72.784424
2018-11-13T02:29:03.664Z,72.888184
2018-11-13T02:29:23.217Z,72.784424
2018-11-13T02:29:43.768Z,72.784424
2018-11-13T02:30:03.317Z,72.888184
2018-11-13T02:30:22.926Z,72.991943
2018-11-13T02:30:42.562Z,73.095703
2018-11-13T02:31:02.067Z,73.095703
2018-11-13T02:31:21.653Z,73.095703
2018-11-13T02:31:41.199Z,73.095703
2018-11-13T02:32:00.778Z,73.095703
2018-11-13T02:32:20.344Z,72.991943
2018-11-13T02:32:39.913Z,73.095703
2018-11-13T02:33:00.283Z,73.095703
2018-11-13T02:33:19.809Z,72.784424
2018-11-13T02:33:39.449Z,71.972656
2018-11-13T02:33:58.987Z,70.751953
2018-11-13T02:34:18.514Z,70.343018
2018-11-13T02:34:38.065Z,70.037842
2018-11-13T02:34:57.627Z,70.379639
2018-11-13T02:35:17.262Z,70.275879
2018-11-13T02:35:36.723Z,70.074463
2018-11-13T02:35:56.245Z,70.477295
2018-11-13T02:36:15.767Z,70.684814
2018-11-13T02:36:35.271Z,70.782471
2018-11-13T02:36:54.845Z,70.581055
2018-11-13T02:37:14.392Z,70.172119
2018-11-13T02:37:33.896Z,70.379639
2018-11-13T02:37:53.449Z,70.379639
2018-11-13T02:38:12.984Z,70.477295
2018-11-13T02:38:32.529Z,70.379639
2018-11-13T02:38:52.054Z,70.074463
2018-11-13T02:39:11.579Z,69.763184
2018-11-13T02:39:31.123Z,69.53125
2018-11-13T02:39:50.716Z,69.53125
2018-11-13T02:40:10.230Z,69.42749
2018-11-13T02:40:29.732Z,69.458008
2018-11-13T02:40:49.319Z,69.458008
2018-11-13T02:41:08.904Z,69.561768
2018-11-13T02:41:28.413Z,69.42749
2018-11-13T02:41:47.999Z,69.42749
2018-11-13T02:42:07.527Z,69.360352
2018-11-13T02:42:27.036Z,69.360352
2018-11-13T02:42:46.597Z,69.561768
2018-11-13T02:43:06.150Z,69.763184
2018-11-13T02:43:25.690Z,69.763184
2018-11-13T02:43:45.232Z,69.665527
2018-11-13T02:44:04.770Z,69.665527
2018-11-13T02:44:24.283Z,69.561768
2018-11-13T02:44:43.793Z,69.561768
2018-11-13T02:45:03.321Z,69.763184
2018-11-13T02:45:22.882Z,69.970703
2018-11-13T02:45:42.391Z,69.970703
2018-11-13T02:46:01.969Z,69.763184
2018-11-13T02:46:21.538Z,69.458008
2018-11-13T02:46:41.050Z,69.458008
2018-11-13T02:47:00.593Z,69.458008
2018-11-13T02:47:20.186Z,69.152832
2018-11-13T02:47:40.805Z,69.055176
2018-11-13T02:48:00.338Z,69.018555
2018-11-13T02:48:19.985Z,68.920898
2018-11-13T02:48:39.525Z,68.920898
2018-11-13T02:48:59.140Z,68.817139
2018-11-13T02:49:19.227Z,68.817139
2018-11-13T02:49:39.336Z,68.713379
2018-11-13T02:49:58.872Z,68.713379
2018-11-13T02:50:18.440Z,68.615723
2018-11-13T02:50:37.954Z,68.615723
2018-11-13T02:50:57.540Z,68.713379
2018-11-13T02:51:17.109Z,68.713379
2018-11-13T02:51:36.660Z,68.713379
2018-11-13T02:51:56.246Z,68.817139
2018-11-13T02:52:15.771Z,68.817139
2018-11-13T02:52:35.282Z,68.951416
2018-11-13T02:52:54.902Z,69.018555
2018-11-13T02:53:14.431Z,68.920898
2018-11-13T02:53:33.974Z,68.817139
2018-11-13T02:53:53.641Z,68.713379
2018-11-13T02:54:13.199Z,68.817139
2018-11-13T02:54:32.777Z,68.615723
2018-11-13T02:54:52.320Z,68.64624
2018-11-13T02:55:11.834Z,68.713379
2018-11-13T02:55:31.373Z,68.64624
2018-11-13T02:55:50.893Z,68.64624
2018-11-13T02:56:10.470Z,68.64624
2018-11-13T02:56:29.986Z,68.615723
2018-11-13T02:56:49.500Z,68.615723
2018-11-13T02:57:09.068Z,68.511963
2018-11-13T02:57:28.600Z,68.408203
2018-11-13T02:57:48.102Z,68.408203
2018-11-13T02:58:07.598Z,68.511963
2018-11-13T02:58:27.162Z,68.444824
2018-11-13T02:58:46.731Z,68.54248
2018-11-13T02:59:06.289Z,68.444824
2018-11-13T02:59:25.815Z,68.54248
2018-11-13T02:59:45.390Z,68.75
2018-11-13T03:00:04.911Z,68.64624
2018-11-13T03:00:24.439Z,68.75
2018-11-13T03:00:43.948Z,68.75
2018-11-13T03:01:03.550Z,68.847656
2018-11-13T03:01:23.049Z,68.75
2018-11-13T03:01:43.599Z,68.444824
2018-11-13T03:02:03.164Z,68.341064
2018-11-13T03:02:22.698Z,68.341064
2018-11-13T03:02:42.264Z,68.237305
2018-11-13T03:03:01.794Z,68.237305
2018-11-13T03:03:21.283Z,68.237305
2018-11-13T03:03:40.855Z,68.341064
2018-11-13T03:04:00.349Z,68.341064
2018-11-13T03:04:19.935Z,68.444824
2018-11-13T03:04:39.497Z,68.341064
2018-11-13T03:04:59.051Z,68.444824
2018-11-13T03:05:18.541Z,68.54248
2018-11-13T03:05:38.066Z,68.444824
2018-11-13T03:05:57.621Z,68.341064
2018-11-13T03:06:17.192Z,68.444824
2018-11-13T03:06:36.740Z,68.341064
2018-11-13T03:06:56.276Z,68.341064
2018-11-13T03:07:15.813Z,68.341064
2018-11-13T03:07:35.365Z,68.444824
2018-11-13T03:07:54.878Z,68.341064
2018-11-13T03:08:14.427Z,68.341064
2018-11-13T03:08:34.962Z,68.444824
2018-11-13T03:08:54.503Z,68.75
2018-11-13T03:09:14.729Z,68.444824
2018-11-13T03:09:34.274Z,68.341064
2018-11-13T03:09:53.814Z,68.444824
2018-11-13T03:10:13.342Z,68.444824
2018-11-13T03:10:32.860Z,68.54248
2018-11-13T03:10:52.405Z,68.444824
2018-11-13T03:11:12.983Z,68.341064
2018-11-13T03:11:32.495Z,68.133545
2018-11-13T03:11:51.996Z,68.237305
2018-11-13T03:12:11.513Z,68.237305
2018-11-13T03:12:31.102Z,68.237305
2018-11-13T03:12:50.608Z,68.133545
2018-11-13T03:13:10.156Z,68.133545
2018-11-13T03:13:29.718Z,68.133545
2018-11-13T03:13:49.370Z,68.133545
2018-11-13T03:14:08.747Z,68.237305
2018-11-13T03:14:28.249Z,68.371582
2018-11-13T03:14:48.745Z,68.572998
2018-11-13T03:15:08.248Z,68.780518
2018-11-13T03:15:27.761Z,68.780518
2018-11-13T03:15:47.264Z,68.64624
2018-11-13T03:16:06.795Z,68.64624
2018-11-13T03:16:26.361Z,68.75
2018-11-13T03:16:45.934Z,68.54248
2018-11-13T03:17:05.451Z,68.54248
2018-11-13T03:17:25.011Z,68.64624
2018-11-13T03:17:44.583Z,68.75
2018-11-13T03:18:04.093Z,68.75
2018-11-13T03:18:23.613Z,68.75
2018-11-13T03:18:43.162Z,68.75
2018-11-13T03:19:02.729Z,68.54248
2018-11-13T03:19:22.285Z,68.444824
2018-11-13T03:19:41.845Z,68.341064
2018-11-13T03:20:01.362Z,68.341064
2018-11-13T03:20:20.886Z,68.341064
2018-11-13T03:20:41.473Z,68.444824
2018-11-13T03:21:00.984Z,68.444824
2018-11-13T03:21:20.566Z,68.444824
2018-11-13T03:21:40.096Z,68.75
2018-11-13T03:21:59.673Z,69.055176
2018-11-13T03:22:19.192Z,69.055176
2018-11-13T03:22:38.792Z,69.152832
2018-11-13T03:22:58.325Z,69.152832
2018-11-13T03:23:17.880Z,69.152832
2018-11-13T03:23:37.399Z,69.055176
2018-11-13T03:23:56.918Z,69.256592
2018-11-13T03:24:16.413Z,69.256592
2018-11-13T03:24:35.955Z,69.055176
2018-11-13T03:24:55.482Z,68.951416
2018-11-13T03:25:15.025Z,68.951416
2018-11-13T03:25:34.538Z,69.256592
2018-11-13T03:25:54.103Z,69.665527
2018-11-13T03:26:13.648Z,69.561768
2018-11-13T03:26:33.186Z,69.763184
2018-11-13T03:26:52.690Z,69.665527
2018-11-13T03:27:12.216Z,69.866943
2018-11-13T03:27:31.758Z,69.970703
2018-11-13T03:27:51.347Z,70.275879
2018-11-13T03:28:10.864Z,70.379639
2018-11-13T03:28:30.400Z,70.477295
2018-11-13T03:28:49.952Z,70.684814
2018-11-13T03:29:09.486Z,70.88623
2018-11-13T03:29:29.005Z,71.087646
2018-11-13T03:29:48.545Z,71.087646
2018-11-13T03:30:08.044Z,71.191406
2018-11-13T03:30:27.561Z,71.392822
2018-11-13T03:30:47.125Z,71.600342
2018-11-13T03:31:06.867Z,71.905518
2018-11-13T03:31:26.398Z,72.412109
2018-11-13T03:31:45.758Z,72.857666
2018-11-13T03:32:05.310Z,72.955322
2018-11-13T03:32:24.844Z,73.059082
2018-11-13T03:32:44.382Z,73.364258
2018-11-13T03:33:03.921Z,73.571777
2018-11-13T03:33:23.433Z,73.571777
2018-11-13T03:33:42.930Z,73.468018
2018-11-13T03:34:02.439Z,73.260498
2018-11-13T03:34:22.010Z,73.364258
2018-11-13T03:34:41.603Z,73.468018
2018-11-13T03:35:01.227Z,73.571777
2018-11-13T03:35:20.756Z,73.876953
2018-11-13T03:35:40.270Z,73.876953
2018-11-13T03:35:59.882Z,74.078369
2018-11-13T03:36:19.360Z,74.078369
2018-11-13T03:36:38.941Z,74.182129
2018-11-13T03:37:00.443Z,74.279785
2018-11-13T03:37:19.969Z,74.279785
2018-11-13T03:37:39.502Z,74.279785
2018-11-13T03:37:59.042Z,74.279785
2018-11-13T03:38:18.555Z,74.383545
2018-11-13T03:38:39.077Z,74.383545
2018-11-13T03:38:58.660Z,74.383545
2018-11-13T03:39:18.177Z,74.383545
2018-11-13T03:39:37.700Z,74.279785
2018-11-13T03:39:57.208Z,74.279785
2018-11-13T03:40:16.710Z,74.078369
2018-11-13T03:40:36.267Z,73.876953
2018-11-13T03:40:55.760Z,74.078369
2018-11-13T03:41:15.338Z,73.944092
2018-11-13T03:41:35.917Z,73.773193
2018-11-13T03:41:56.478Z,73.669434
2018-11-13T03:42:15.994Z,73.431396
2018-11-13T03:42:35.500Z,73.364258
2018-11-13T03:42:56.021Z,73.260498
2018-11-13T03:43:15.577Z,73.059082
2018-11-13T03:43:35.066Z,72.955322
2018-11-13T03:43:55.564Z,72.344971
2018-11-13T03:44:15.084Z,72.753906
2018-11-13T03:44:34.599Z,72.650146
2018-11-13T03:44:54.154Z,72.241211
2018-11-13T03:45:13.673Z,71.936035
2018-11-13T03:45:33.198Z,71.533203
2018-11-13T03:45:52.717Z,71.630859
2018-11-13T03:46:12.242Z,71.325684
2018-11-13T03:46:31.793Z,71.429443
2018-11-13T03:46:51.354Z,71.734619
2018-11-13T03:47:10.866Z,71.838379
2018-11-13T03:47:30.381Z,71.734619
2018-11-13T03:47:49.911Z,71.630859
2018-11-13T03:48:09.456Z,71.325684
2018-11-13T03:48:28.967Z,71.228027
2018-11-13T03:48:48.479Z,71.124268
2018-11-13T03:49:07.988Z,71.020508
2018-11-13T03:49:27.511Z,71.429443
2018-11-13T03:49:47.039Z,71.533203
2018-11-13T03:50:06.540Z,71.429443
2018-11-13T03:50:27.053Z,71.459961
2018-11-13T03:50:46.577Z,71.563721
2018-11-13T03:51:06.159Z,71.459961
2018-11-13T03:51:25.729Z,71.563721
2018-11-13T03:51:45.305Z,71.563721
2018-11-13T03:52:04.817Z,71.66748
2018-11-13T03:52:24.335Z,71.77124
2018-11-13T03:52:43.873Z,71.972656
2018-11-13T03:53:03.355Z,72.076416
2018-11-13T03:53:22.913Z,71.972656
2018-11-13T03:53:42.406Z,71.972656